TimeMDT,TemperatureF,Dew PointF,Humidity,Sea Level PressureIn,VisibilityMPH,Wind Direction,Wind SpeedMPH,Gust SpeedMPH,PrecipitationIn,Events,Conditions,WindDirDegrees,DateUTC
5:00 AM,48.2,46.4,93,29.96,15.0,NW,9.2,-,N/A,,Clear,320,2013-09-09 11:00:00
6:00 AM,47,46,97,29.99,15,NW,9.2,,,,Scattered Clouds,320,2013-09-09 12:00:00
6:00 AM,48.2,46.4,93,29.99,15.0,NW,9.2,-,N/A,,Partly Cloudy,310,2013-09-09 12:00:00
7:00 AM,51.8,48.2,88,30.00,25.0,NNW,10.4,-,N/A,,Mostly Cloudy,330,2013-09-09 13:00:00
8:00 AM,51.8,50.0,94,30.02,30.0,NW,8.1,-,N/A,,Mostly Cloudy,320,2013-09-09 14:00:00
9:00 AM,57.2,53.6,88,30.01,30.0,NW,4.6,-,N/A,,Partly Cloudy,320,2013-09-09 15:00:00
10:00 AM,64.4,51.8,64,30.00,30.0,NW,5.8,-,N/A,,Partly Cloudy,310,2013-09-09 16:00:00
11:00 AM,66.2,46.4,49,30.00,30.0,NNW,8.1,-,N/A,,Partly Cloudy,330,2013-09-09 17:00:00
12:00 PM,68,46,34,29.99,28,NNW,3.5,,,,Partly Cloudy,340,2013-09-09 18:00:00
12:00 PM,68.0,46.4,46,29.99,30.0,North,4.6,-,N/A,,Scattered Clouds,360,2013-09-09 18:00:00
1:00 PM,69.8,46.4,43,29.97,30.0,South,3.5,-,N/A,,Partly Cloudy,170,2013-09-09 19:00:00
2:00 PM,69.8,48.2,46,29.95,30.0,Calm,Calm,-,N/A,,Scattered Clouds,0,2013-09-09 20:00:00
3:00 PM,73.4,48.2,41,29.94,30.0,South,4.6,-,N/A,,Partly Cloudy,190,2013-09-09 21:00:00
4:00 PM,71.6,51.8,50,29.94,30.0,South,6.9,-,N/A,,Partly Cloudy,190,2013-09-09 22:00:00
5:00 PM,73.4,51.8,47,29.94,30.0,SSE,9.2,-,N/A,,Partly Cloudy,160,2013-09-09 23:00:00
6:00 PM,72,51,36,29.94,28,SSE,8.1,,,,Scattered Clouds,160,2013-09-10 00:00:00
6:00 PM,71.6,51.8,50,29.94,30.0,SSE,9.2,-,N/A,,Partly Cloudy,160,2013-09-10 00:00:00
7:00 PM,69.8,51.8,53,29.94,30.0,South,6.9,-,N/A,,Partly Cloudy,170,2013-09-10 01:00:00
8:00 PM,62.6,51.8,68,29.97,30.0,SSE,4.6,-,N/A,,Partly Cloudy,160,2013-09-10 02:00:00
9:00 PM,59.0,51.8,77,29.99,15.0,South,3.5,-,N/A,,Partly Cloudy,190,2013-09-10 03:00:00
10:00 PM,53.6,50.0,88,30.01,15.0,NE,2.3,-,N/A,,Partly Cloudy,50,2013-09-10 04:00:00